createdAt,value
2023-01-26T00:00:34.216Z,-1.80
2023-01-26T00:03:02.518Z,-1.80
2023-01-26T00:05:32.219Z,-1.80
2023-01-26T00:08:00.744Z,-1.80
2023-01-26T00:10:29.383Z,-1.80
2023-01-26T00:12:57.819Z,-1.80
2023-01-26T00:15:26.189Z,-1.80
2023-01-26T00:17:54.592Z,-1.80
2023-01-26T00:20:22.993Z,-1.80
2023-01-26T00:22:55.739Z,-1.80
2023-01-26T00:25:24.320Z,-1.80
2023-01-26T00:27:58.739Z,-1.80
2023-01-26T00:30:27.408Z,-1.80
2023-01-26T00:32:57.618Z,-1.80
2023-01-26T00:35:34.909Z,-1.80
2023-01-26T00:38:05.719Z,-1.70
2023-01-26T00:40:40.274Z,-1.70
2023-01-26T00:43:09.070Z,-1.70
2023-01-26T00:45:38.045Z,-1.70
2023-01-26T00:48:07.141Z,-1.70
2023-01-26T00:50:41.453Z,-1.70
2023-01-26T00:53:12.161Z,-1.70
2023-01-26T00:55:40.762Z,-1.60
2023-01-26T00:58:10.248Z,-1.60
2023-01-26T01:00:40.301Z,-1.60
2023-01-26T01:03:09.461Z,-1.60
2023-01-26T01:05:37.963Z,-1.60
2023-01-26T01:08:06.703Z,-1.60
2023-01-26T01:10:36.712Z,-1.60
2023-01-26T01:13:08.059Z,-1.60
2023-01-26T01:15:36.384Z,-1.50
2023-01-26T01:18:05.120Z,-1.60
2023-01-26T01:20:33.403Z,-1.60
2023-01-26T01:23:01.656Z,-1.60
2023-01-26T01:25:30.083Z,-1.60
2023-01-26T01:27:59.751Z,-1.60
2023-01-26T01:30:28.074Z,-1.50
2023-01-26T01:32:56.917Z,-1.60
2023-01-26T01:35:25.368Z,-1.60
2023-01-26T01:37:53.736Z,-1.60
2023-01-26T01:40:22.201Z,-1.50
2023-01-26T01:42:50.942Z,-1.50
2023-01-26T01:45:43.292Z,-1.50
2023-01-26T01:48:21.622Z,-1.50
2023-01-26T01:50:52.291Z,-1.50
2023-01-26T01:53:25.511Z,-1.50
2023-01-26T01:55:58.239Z,-1.50
2023-01-26T01:58:28.026Z,-1.50
2023-01-26T02:00:59.150Z,-1.50
2023-01-26T02:03:29.973Z,-1.60
2023-01-26T02:06:04.485Z,-1.60
2023-01-26T02:08:35.458Z,-1.60
2023-01-26T02:11:09.748Z,-1.60
2023-01-26T02:13:39.171Z,-1.70
2023-01-26T02:16:09.332Z,-1.70
2023-01-26T02:18:37.701Z,-1.60
2023-01-26T02:21:08.670Z,-1.60
2023-01-26T02:23:45.881Z,-1.60
2023-01-26T02:26:17.412Z,-1.60
2023-01-26T02:28:47.168Z,-1.60
2023-01-26T02:31:16.993Z,-1.60
2023-01-26T02:33:45.897Z,-1.60
2023-01-26T02:36:20.941Z,-1.60
2023-01-26T02:38:57.633Z,-1.60
2023-01-26T02:41:45.489Z,-1.60
2023-01-26T02:44:15.858Z,-1.60
2023-01-26T02:46:44.390Z,-1.70
2023-01-26T02:49:30.269Z,-1.70
2023-01-26T02:51:58.784Z,-1.70
2023-01-26T02:54:44.589Z,-1.70
2023-01-26T02:57:14.409Z,-1.80
2023-01-26T02:59:43.085Z,-1.70
2023-01-26T03:02:11.838Z,-1.80
2023-01-26T03:04:40.289Z,-1.80
2023-01-26T03:07:08.611Z,-1.70
2023-01-26T03:09:36.926Z,-1.70
2023-01-26T03:12:08.428Z,-1.70
2023-01-26T03:14:38.252Z,-1.70
2023-01-26T03:17:06.599Z,-1.70
2023-01-26T03:19:52.616Z,-1.70
2023-01-26T03:22:38.331Z,-1.70
2023-01-26T03:25:24.813Z,-1.70
2023-01-26T03:27:53.115Z,-1.70
2023-01-26T03:30:22.922Z,-1.70
2023-01-26T03:32:51.232Z,-1.70
2023-01-26T03:35:23.079Z,-1.70
2023-01-26T03:37:54.951Z,-1.70
2023-01-26T03:40:40.940Z,-1.70
2023-01-26T03:43:27.248Z,-1.70
2023-01-26T03:46:14.118Z,-1.70
2023-01-26T03:49:00.104Z,-1.70
2023-01-26T03:51:45.888Z,-1.70
2023-01-26T03:54:31.910Z,-1.80
2023-01-26T03:57:00.414Z,-1.70
2023-01-26T03:59:39.191Z,-1.70
2023-01-26T04:02:28.629Z,-1.70
2023-01-26T04:05:15.019Z,-1.70
2023-01-26T04:08:00.937Z,-1.70
2023-01-26T04:10:29.801Z,-1.70
2023-01-26T04:13:15.610Z,-1.70
2023-01-26T04:16:01.068Z,-1.70
2023-01-26T04:18:48.348Z,-1.70
2023-01-26T04:21:29.133Z,-1.70
2023-01-26T04:23:59.245Z,-1.70
2023-01-26T04:26:34.732Z,-1.70
2023-01-26T04:29:03.780Z,-1.70
2023-01-26T04:31:32.587Z,-1.70
2023-01-26T04:34:03.396Z,-1.60
2023-01-26T04:36:32.149Z,-1.60
2023-01-26T04:39:00.540Z,-1.60
2023-01-26T04:41:33.159Z,-1.60
2023-01-26T04:44:01.895Z,-1.60
2023-01-26T04:46:34.220Z,-1.60
2023-01-26T04:49:04.029Z,-1.60
2023-01-26T04:51:32.532Z,-1.60
2023-01-26T04:54:00.837Z,-1.60
2023-01-26T04:56:31.739Z,-1.60
2023-01-26T04:59:01.602Z,-1.60
2023-01-26T05:01:30.533Z,-1.60
2023-01-26T05:04:01.248Z,-1.60
2023-01-26T05:06:31.197Z,-1.50
2023-01-26T05:09:00.224Z,-1.60
2023-01-26T05:11:28.517Z,-1.50
2023-01-26T05:13:56.917Z,-1.50
2023-01-26T05:16:25.493Z,-1.50
2023-01-26T05:18:56.961Z,-1.50
2023-01-26T05:21:27.521Z,-1.50
2023-01-26T05:23:57.705Z,-1.50
2023-01-26T05:26:26.214Z,-1.50
2023-01-26T05:28:54.563Z,-1.50
2023-01-26T05:31:23.110Z,-1.50
2023-01-26T05:33:51.481Z,-1.50
2023-01-26T05:36:19.809Z,-1.50
2023-01-26T05:38:48.414Z,-1.50
2023-01-26T05:41:18.166Z,-1.50
2023-01-26T05:43:46.678Z,-1.50
2023-01-26T05:46:15.113Z,-1.50
2023-01-26T05:48:43.591Z,-1.50
2023-01-26T05:51:11.943Z,-1.40
2023-01-26T05:53:40.319Z,-1.40
2023-01-26T05:56:09.228Z,-1.40
2023-01-26T05:58:39.009Z,-1.40
2023-01-26T06:01:08.713Z,-1.40
2023-01-26T06:03:36.949Z,-1.40
2023-01-26T06:06:05.591Z,-1.40
2023-01-26T06:08:33.911Z,-1.40
2023-01-26T06:11:02.437Z,-1.30
2023-01-26T06:13:31.328Z,-1.30
2023-01-26T06:16:03.529Z,-1.40
2023-01-26T06:18:31.987Z,-1.40
2023-01-26T06:21:01.339Z,-1.30
2023-01-26T06:23:29.704Z,-1.30
2023-01-26T06:26:00.876Z,-1.30
2023-01-26T06:28:29.622Z,-1.30
2023-01-26T06:31:02.603Z,-1.30
2023-01-26T06:33:32.372Z,-1.30
2023-01-26T06:36:03.651Z,-1.30
2023-01-26T06:38:32.628Z,-1.30
2023-01-26T06:41:03.107Z,-1.20
2023-01-26T06:43:31.749Z,-1.20
2023-01-26T06:46:00.908Z,-1.20
2023-01-26T06:48:32.267Z,-1.20
2023-01-26T06:51:06.557Z,-1.20
2023-01-26T06:53:38.431Z,-1.20
2023-01-26T06:56:07.050Z,-1.20
2023-01-26T06:58:35.366Z,-1.20
2023-01-26T07:01:03.771Z,-1.20
2023-01-26T07:03:33.448Z,-1.20
2023-01-26T07:06:01.895Z,-1.20
2023-01-26T07:08:30.220Z,-1.10
2023-01-26T07:10:58.559Z,-1.10
2023-01-26T07:13:26.940Z,-1.10
2023-01-26T07:16:02.789Z,-1.10
2023-01-26T07:18:33.032Z,-1.10
2023-01-26T07:21:06.057Z,-1.10
2023-01-26T07:23:35.166Z,-1.00
2023-01-26T07:26:03.802Z,-1.10
2023-01-26T07:28:34.376Z,-1.10
2023-01-26T07:31:03.312Z,-1.00
2023-01-26T07:33:33.797Z,-1.00
2023-01-26T07:36:02.368Z,-1.00
2023-01-26T07:38:30.780Z,-1.00
2023-01-26T07:40:59.360Z,-1.00
2023-01-26T07:43:27.719Z,-0.90
2023-01-26T07:45:56.438Z,-0.90
2023-01-26T07:48:25.549Z,-0.90
2023-01-26T07:50:55.261Z,-0.90
2023-01-26T07:53:25.430Z,-0.90
2023-01-26T07:55:53.729Z,-0.80
2023-01-26T07:58:22.569Z,-0.80
2023-01-26T08:00:51.063Z,-0.80
2023-01-26T08:03:19.572Z,-0.80
2023-01-26T08:05:47.906Z,-0.80
2023-01-26T08:08:18.075Z,-0.80
2023-01-26T08:10:46.388Z,-0.70
2023-01-26T08:13:17.218Z,-0.70
2023-01-26T08:15:54.950Z,-0.70
2023-01-26T08:18:23.309Z,-0.70
2023-01-26T08:20:52.929Z,-0.70
2023-01-26T08:23:23.049Z,-0.60
2023-01-26T08:25:51.384Z,-0.60
2023-01-26T08:28:21.203Z,-0.60
2023-01-26T08:30:49.653Z,-0.60
2023-01-26T08:33:18.135Z,-0.60
2023-01-26T08:35:46.410Z,-0.60
2023-01-26T08:38:14.753Z,-0.60
2023-01-26T08:40:44.480Z,-0.50
2023-01-26T08:43:12.777Z,-0.60
2023-01-26T08:45:41.167Z,-0.60
2023-01-26T08:48:09.537Z,-0.60
2023-01-26T08:50:37.929Z,-0.60
2023-01-26T08:53:06.249Z,-0.60
2023-01-26T08:55:35.704Z,-0.50
2023-01-26T08:58:05.749Z,-0.50
2023-01-26T09:00:34.318Z,-0.50
2023-01-26T09:03:07.331Z,-0.50
2023-01-26T09:05:37.971Z,-0.50
2023-01-26T09:08:07.779Z,-0.40
2023-01-26T09:10:37.968Z,-0.40
2023-01-26T09:13:08.199Z,-0.40
2023-01-26T09:15:39.485Z,-0.40
2023-01-26T09:18:07.845Z,-0.30
2023-01-26T09:20:36.101Z,-0.30
2023-01-26T09:23:04.496Z,-0.20
2023-01-26T09:25:32.918Z,-0.20
2023-01-26T09:28:05.480Z,-0.20
2023-01-26T09:30:35.596Z,-0.20
2023-01-26T09:33:07.023Z,-0.20
2023-01-26T09:35:35.399Z,-0.10
2023-01-26T09:38:03.773Z,-0.10
2023-01-26T09:40:40.357Z,-0.10
2023-01-26T09:43:22.175Z,0.00
2023-01-26T09:46:02.054Z,0.00
2023-01-26T09:48:42.948Z,0.00
2023-01-26T09:51:15.852Z,0.00
2023-01-26T09:53:51.827Z,0.00
2023-01-26T09:56:21.806Z,0.00
2023-01-26T09:58:57.342Z,0.00
2023-01-26T10:01:36.385Z,0.00
2023-01-26T10:04:12.618Z,0.00
2023-01-26T10:06:41.898Z,0.00
2023-01-26T10:09:26.536Z,0.10
2023-01-26T10:11:59.651Z,0.10
2023-01-26T10:14:35.841Z,0.10
2023-01-26T10:17:07.417Z,0.10
2023-01-26T10:19:41.052Z,0.10
2023-01-26T10:22:17.827Z,0.10
2023-01-26T10:24:50.520Z,0.20
2023-01-26T10:27:19.139Z,0.20
2023-01-26T10:29:47.426Z,0.20
2023-01-26T10:32:19.509Z,0.30
2023-01-26T10:34:50.756Z,0.30
2023-01-26T10:37:29.453Z,0.30
2023-01-26T10:40:00.232Z,0.30
2023-01-26T10:42:31.213Z,0.30
2023-01-26T10:45:02.081Z,0.40
2023-01-26T10:47:32.000Z,0.40
2023-01-26T10:50:25.922Z,0.40
2023-01-26T10:53:02.162Z,0.50
2023-01-26T10:55:31.784Z,0.50
2023-01-26T10:58:00.289Z,0.50
2023-01-26T11:00:31.671Z,0.50
2023-01-26T11:03:19.241Z,0.50
2023-01-26T11:06:05.932Z,0.50
2023-01-26T11:08:36.315Z,0.60
2023-01-26T11:11:07.034Z,0.70
2023-01-26T11:13:35.418Z,0.70
2023-01-26T11:16:10.487Z,0.70
2023-01-26T11:18:48.127Z,0.70
2023-01-26T11:21:21.443Z,0.70
2023-01-26T11:24:05.104Z,0.80
2023-01-26T11:27:11.200Z,0.90
2023-01-26T11:30:01.116Z,0.90
2023-01-26T11:32:36.788Z,0.80
2023-01-26T11:35:16.251Z,0.70
2023-01-26T11:37:48.908Z,0.70
2023-01-26T11:40:32.289Z,0.70
2023-01-26T11:43:20.362Z,0.70
2023-01-26T11:46:13.156Z,0.70
2023-01-26T11:48:52.756Z,0.70
2023-01-26T11:51:32.779Z,0.70
2023-01-26T11:54:22.540Z,0.70
2023-01-26T11:56:57.942Z,0.70
2023-01-26T11:59:31.210Z,0.70
2023-01-26T12:02:02.981Z,0.80
2023-01-26T12:04:34.552Z,0.70
2023-01-26T12:07:12.579Z,0.70
2023-01-26T12:09:45.674Z,0.70
2023-01-26T12:12:18.890Z,0.80
2023-01-26T12:14:52.379Z,0.70
2023-01-26T12:17:32.630Z,0.80
2023-01-26T12:20:08.237Z,0.80
2023-01-26T12:22:40.309Z,0.80
2023-01-26T12:25:24.719Z,0.80
2023-01-26T12:27:59.992Z,0.80
2023-01-26T12:30:42.981Z,0.80
2023-01-26T12:33:12.373Z,0.80
2023-01-26T12:36:07.219Z,0.80
2023-01-26T12:38:52.274Z,0.80
2023-01-26T12:41:32.502Z,0.80
2023-01-26T12:44:18.462Z,0.80
2023-01-26T12:46:52.941Z,0.90
2023-01-26T12:49:25.608Z,0.80
2023-01-26T12:51:58.680Z,0.90
2023-01-26T12:54:37.586Z,0.90
2023-01-26T12:57:12.591Z,0.90
2023-01-26T12:59:47.997Z,0.90
2023-01-26T13:02:31.269Z,1.00
2023-01-26T13:05:00.706Z,1.00
2023-01-26T13:07:35.088Z,1.10
2023-01-26T13:10:25.497Z,1.10
2023-01-26T13:12:56.545Z,1.10
2023-01-26T13:15:26.560Z,1.10
2023-01-26T13:18:00.627Z,1.10
2023-01-26T13:20:52.577Z,1.10
2023-01-26T13:23:52.720Z,1.10
2023-01-26T13:26:53.437Z,1.10
2023-01-26T13:29:53.839Z,1.10
2023-01-26T13:32:55.431Z,1.10
2023-01-26T13:35:26.928Z,1.10
2023-01-26T13:38:00.329Z,1.20
2023-01-26T13:40:32.403Z,1.20
2023-01-26T13:43:20.695Z,1.20
2023-01-26T13:46:03.292Z,1.20
2023-01-26T13:48:43.916Z,1.20
2023-01-26T13:51:19.091Z,1.30
2023-01-26T13:54:03.573Z,1.20
2023-01-26T13:56:33.798Z,1.30
2023-01-26T13:59:12.625Z,1.30
2023-01-26T14:01:45.970Z,1.30
2023-01-26T14:04:17.682Z,1.30
2023-01-26T14:06:50.796Z,1.30
2023-01-26T14:09:19.472Z,1.30
2023-01-26T14:11:57.132Z,1.30
2023-01-26T14:14:29.166Z,1.30
2023-01-26T14:17:00.029Z,1.30
2023-01-26T14:19:29.258Z,1.30
2023-01-26T14:22:00.264Z,1.30
2023-01-26T14:24:33.348Z,1.30
2023-01-26T14:27:02.189Z,1.30
2023-01-26T14:29:32.496Z,1.30
2023-01-26T14:32:01.712Z,1.30
2023-01-26T14:34:32.140Z,1.40
2023-01-26T14:37:08.384Z,1.40
2023-01-26T14:39:36.787Z,1.40
2023-01-26T14:42:05.950Z,1.40
2023-01-26T14:44:36.077Z,1.50
2023-01-26T14:47:09.252Z,1.50
2023-01-26T14:49:46.331Z,1.50
2023-01-26T14:52:25.085Z,1.50
2023-01-26T14:54:55.509Z,1.50
2023-01-26T14:57:26.606Z,1.50
2023-01-26T14:59:58.246Z,1.60
2023-01-26T15:02:29.429Z,1.50
2023-01-26T15:05:02.242Z,1.60
2023-01-26T15:07:35.299Z,1.60
2023-01-26T15:10:04.673Z,1.60
2023-01-26T15:12:35.780Z,1.60
2023-01-26T15:15:15.316Z,1.60
2023-01-26T15:17:44.715Z,1.60
2023-01-26T15:20:40.104Z,1.60
2023-01-26T15:23:27.230Z,1.60
2023-01-26T15:25:56.295Z,1.60
2023-01-26T15:28:27.118Z,1.70
2023-01-26T15:30:58.276Z,1.60
2023-01-26T15:33:41.180Z,1.70
2023-01-26T15:36:24.888Z,1.70
2023-01-26T15:38:59.427Z,1.70
2023-01-26T15:41:27.953Z,1.70
2023-01-26T15:43:56.597Z,1.70
2023-01-26T15:46:26.745Z,1.70
2023-01-26T15:48:55.992Z,1.70
2023-01-26T15:51:24.684Z,1.70
2023-01-26T15:53:53.257Z,1.70
2023-01-26T15:56:21.781Z,1.70
2023-01-26T15:58:50.229Z,1.70
2023-01-26T16:01:23.146Z,1.70
2023-01-26T16:03:53.189Z,1.80
2023-01-26T16:06:25.400Z,1.80
2023-01-26T16:08:54.153Z,1.80
2023-01-26T16:11:23.708Z,1.80
2023-01-26T16:14:02.948Z,1.80
2023-01-26T16:16:33.083Z,1.80
2023-01-26T16:19:02.972Z,1.80
2023-01-26T16:21:35.325Z,1.80
2023-01-26T16:24:06.470Z,1.80
2023-01-26T16:26:35.330Z,1.90
2023-01-26T16:29:03.989Z,1.90
2023-01-26T16:31:34.720Z,1.90
2023-01-26T16:34:05.569Z,1.90
2023-01-26T16:36:34.161Z,1.90
2023-01-26T16:39:03.226Z,1.90
2023-01-26T16:41:33.763Z,2.00
2023-01-26T16:44:03.579Z,2.00
2023-01-26T16:46:32.314Z,2.00
2023-01-26T16:49:00.660Z,2.00
2023-01-26T16:51:33.308Z,2.00
2023-01-26T16:54:01.679Z,2.00
2023-01-26T16:56:30.136Z,2.00
2023-01-26T16:58:58.496Z,2.00
2023-01-26T17:01:30.336Z,2.00
2023-01-26T17:03:59.030Z,2.10
2023-01-26T17:06:27.445Z,2.00
2023-01-26T17:08:57.519Z,2.10
2023-01-26T17:11:28.445Z,2.10
2023-01-26T17:13:59.449Z,2.10
2023-01-26T17:16:32.249Z,2.10
2023-01-26T17:19:00.899Z,2.10
2023-01-26T17:21:29.345Z,2.10
2023-01-26T17:23:59.985Z,2.10
2023-01-26T17:26:28.461Z,2.10
2023-01-26T17:28:57.572Z,2.10
2023-01-26T17:31:26.630Z,2.20
2023-01-26T17:33:56.315Z,2.20
2023-01-26T17:36:27.667Z,2.20
2023-01-26T17:38:56.104Z,2.20
2023-01-26T17:41:26.673Z,2.20
2023-01-26T17:43:55.010Z,2.20
2023-01-26T17:46:24.539Z,2.20
2023-01-26T17:48:53.029Z,2.20
2023-01-26T17:51:23.183Z,2.20
2023-01-26T17:53:51.686Z,2.20
2023-01-26T17:56:21.870Z,2.20
2023-01-26T17:58:53.648Z,2.20
2023-01-26T18:01:23.780Z,2.20
2023-01-26T18:03:53.553Z,2.20
2023-01-26T18:06:21.930Z,2.20
2023-01-26T18:08:50.458Z,2.20
2023-01-26T18:11:19.209Z,2.30
2023-01-26T18:13:47.780Z,2.30
2023-01-26T18:16:19.312Z,2.30
2023-01-26T18:18:48.318Z,2.30
2023-01-26T18:21:18.581Z,2.30
2023-01-26T18:23:48.196Z,2.30
2023-01-26T18:26:17.661Z,2.30
2023-01-26T18:28:46.651Z,2.30
2023-01-26T18:31:18.642Z,2.30
2023-01-26T18:33:47.238Z,2.30
2023-01-26T18:36:17.557Z,2.40
2023-01-26T18:38:51.790Z,2.40
2023-01-26T18:41:21.861Z,2.40
2023-01-26T18:43:52.655Z,2.40
2023-01-26T18:46:23.581Z,2.40
2023-01-26T18:48:54.185Z,2.40
2023-01-26T18:51:23.182Z,2.40
2023-01-26T18:53:51.441Z,2.40
2023-01-26T18:56:19.951Z,2.40
2023-01-26T18:58:48.278Z,2.40
2023-01-26T19:01:18.950Z,2.40
2023-01-26T19:03:54.200Z,2.40
2023-01-26T19:06:24.481Z,2.40
2023-01-26T19:08:59.441Z,2.40
2023-01-26T19:11:28.772Z,2.40
2023-01-26T19:13:57.858Z,2.40
2023-01-26T19:16:27.092Z,2.40
2023-01-26T19:18:56.922Z,2.30
2023-01-26T19:21:27.657Z,2.30
2023-01-26T19:23:58.691Z,2.30
2023-01-26T19:26:29.779Z,2.30
2023-01-26T19:28:58.981Z,2.30
2023-01-26T19:31:28.151Z,2.30
2023-01-26T19:33:59.658Z,2.30
2023-01-26T19:36:30.067Z,2.30
2023-01-26T19:38:58.653Z,2.30
2023-01-26T19:41:27.766Z,2.20
2023-01-26T19:43:56.103Z,2.20
2023-01-26T19:46:24.749Z,2.20
2023-01-26T19:48:53.178Z,2.20
2023-01-26T19:51:25.127Z,2.20
2023-01-26T19:53:56.277Z,2.20
2023-01-26T19:56:26.348Z,2.20
2023-01-26T19:58:56.534Z,2.20
2023-01-26T20:01:25.522Z,2.20
2023-01-26T20:03:55.946Z,2.20
2023-01-26T20:06:28.428Z,2.20
2023-01-26T20:08:57.346Z,2.20
2023-01-26T20:11:28.944Z,2.20
2023-01-26T20:13:58.077Z,2.30
2023-01-26T20:16:28.255Z,2.30
2023-01-26T20:18:56.659Z,2.30
2023-01-26T20:21:26.900Z,2.30
2023-01-26T20:23:56.224Z,2.30
2023-01-26T20:26:26.417Z,2.30
2023-01-26T20:28:58.140Z,2.30
2023-01-26T20:31:28.272Z,2.30
2023-01-26T20:33:58.310Z,2.30
2023-01-26T20:36:29.377Z,2.30
2023-01-26T20:38:58.296Z,2.30
2023-01-26T20:41:29.106Z,2.40
2023-01-26T20:44:01.171Z,2.40
2023-01-26T20:46:31.612Z,2.40
2023-01-26T20:49:00.438Z,2.40
2023-01-26T20:51:33.723Z,2.40
2023-01-26T20:54:02.439Z,2.40
2023-01-26T20:56:30.953Z,2.50
2023-01-26T20:58:59.472Z,2.50
2023-01-26T21:01:27.876Z,2.50
2023-01-26T21:03:56.830Z,2.50
2023-01-26T21:06:26.214Z,2.60
2023-01-26T21:08:57.885Z,2.60
2023-01-26T21:11:28.474Z,2.60
2023-01-26T21:13:57.422Z,2.60
2023-01-26T21:16:26.199Z,2.60
2023-01-26T21:18:54.776Z,2.60
2023-01-26T21:21:23.537Z,2.60
2023-01-26T21:23:52.261Z,2.60
2023-01-26T21:26:25.622Z,2.60
2023-01-26T21:28:56.051Z,2.60
2023-01-26T21:31:26.098Z,2.70
2023-01-26T21:33:55.440Z,2.70
2023-01-26T21:36:25.569Z,2.70
2023-01-26T21:38:55.639Z,2.70
2023-01-26T21:41:45.135Z,2.70
2023-01-26T21:44:15.480Z,2.70
2023-01-26T21:46:45.313Z,2.80
2023-01-26T21:49:14.664Z,2.80
2023-01-26T21:52:00.605Z,2.80
2023-01-26T21:54:30.086Z,2.80
2023-01-26T21:57:00.670Z,2.80
2023-01-26T21:59:28.989Z,2.90
2023-01-26T22:01:58.883Z,2.90
2023-01-26T22:04:29.096Z,2.90
2023-01-26T22:06:57.921Z,2.90
2023-01-26T22:09:26.721Z,2.80
2023-01-26T22:11:55.191Z,2.80
2023-01-26T22:14:26.232Z,2.70
2023-01-26T22:16:54.880Z,2.70
2023-01-26T22:19:23.344Z,2.70
2023-01-26T22:21:51.702Z,2.70
2023-01-26T22:24:20.254Z,2.60
2023-01-26T22:26:48.940Z,2.60
2023-01-26T22:29:17.446Z,2.50
2023-01-26T22:31:47.380Z,2.50
2023-01-26T22:34:15.750Z,2.50
2023-01-26T22:36:44.131Z,2.40
2023-01-26T22:39:13.348Z,2.40
2023-01-26T22:41:41.776Z,2.40
2023-01-26T22:44:10.717Z,2.40
2023-01-26T22:46:39.149Z,2.40
2023-01-26T22:49:08.919Z,2.40
2023-01-26T22:51:37.739Z,2.40
2023-01-26T22:54:07.297Z,2.40
2023-01-26T22:56:35.924Z,2.40
2023-01-26T22:59:04.390Z,2.40
2023-01-26T23:01:33.924Z,2.40
2023-01-26T23:04:02.835Z,2.40
2023-01-26T23:06:32.843Z,2.40
2023-01-26T23:09:04.781Z,2.40
2023-01-26T23:11:33.197Z,2.40
2023-01-26T23:14:02.250Z,2.40
2023-01-26T23:16:31.496Z,2.30
2023-01-26T23:19:01.853Z,2.30
2023-01-26T23:21:32.395Z,2.30
2023-01-26T23:24:04.064Z,2.30
2023-01-26T23:26:35.310Z,2.30
2023-01-26T23:29:06.579Z,2.30
2023-01-26T23:31:35.492Z,2.30
2023-01-26T23:34:03.870Z,2.30
2023-01-26T23:36:33.953Z,2.30
2023-01-26T23:39:02.797Z,2.30
2023-01-26T23:41:31.651Z,2.30
2023-01-26T23:44:03.233Z,2.30
2023-01-26T23:46:34.461Z,2.30
2023-01-26T23:49:03.100Z,2.30
2023-01-26T23:51:39.511Z,2.30
2023-01-26T23:54:08.292Z,2.40
2023-01-26T23:56:36.704Z,2.40
2023-01-26T23:59:04.967Z,2.40
